• Join FlightAware (Why Join?)
  • Login
  • US Flag 
01:24PM EDT


 

Airport Tracker/Info


-or-


 

Live Flight TrackerFlight Track Log ✈ LNE516 ✈ 03-May-2013 ✈ SEQM / UIO - KMIA

Flight Track Log - Related Links

Times and Time Zones

All times are in EDT time to prevent confusion due to time zone crossing. See the LNE516 flight status page for this flight to view local times or setup timezone preferences in your user account.

Time Position Orientation Groundspeed Altitude Reporting Facility
EDT Latitude Longitude Course Direction KTS MPH feet Rate Location/Type
03:15AM 4.6000 -79.0690 353° North 450 518 36,000  Level FlightAware
03:15AM 4.6650 -79.0770 353° North 450 518 36,000  Level FlightAware
03:16AM 4.7720 -79.0900 353° North 452 520 36,000  Level FlightAware
03:17AM 4.8930 -79.1030 354° North 452 520 36,000  Level FlightAware
03:18AM 4.9630 -79.1120 353° North 452 520 36,000  Level FlightAware
03:18AM 5.0340 -79.1210 353° North 452 520 36,000  Level FlightAware
03:19AM 5.1220 -79.1320 353° North 452 520 36,000  Level FlightAware
03:20AM 5.1930 -79.1400 354° North 452 520 36,000  Level FlightAware
03:21AM 5.2630 -79.1490 353° North 452 520 36,000  Level FlightAware
03:21AM 5.4500 -79.1760 352° North 458 527 36,000  Level FlightAware
03:22AM 5.5390 -79.1900 351° North 458 527 36,000  Level FlightAware
03:23AM 5.6100 -79.2010 351° North 458 527 36,000  Level FlightAware
03:24AM 5.6810 -79.2130 350° North 458 527 36,000  Level FlightAware
03:24AM 5.7520 -79.2240 351° North 458 527 36,000  Level FlightAware
03:25AM 5.8410 -79.2380 351° North 458 527 36,000  Level FlightAware
03:26AM 5.9120 -79.2500 350° North 458 527 36,000  Level FlightAware
03:26AM 5.9830 -79.2610 351° North 458 527 36,000  Level FlightAware
03:27AM 6.0550 -79.2720 351° North 458 527 36,000  Level FlightAware
03:28AM 6.1260 -79.2840 350° North 458 527 36,000  Level FlightAware
03:28AM 6.1970 -79.2950 351° North 458 527 36,000  Level FlightAware
03:29AM 6.2680 -79.3060 351° North 458 527 36,000  Level FlightAware
03:30AM 6.3570 -79.3200 351° North 458 527 36,000  Level FlightAware
03:31AM 6.4280 -79.3320 350° North 458 527 36,000  Level FlightAware
03:33AM 6.6322 -79.3413 357° North  Level Estimated
03:34AM 6.7407 -79.3463 357° North  Level Estimated
03:35AM 6.8491 -79.3512 357° North  Level Estimated
03:36AM 6.9576 -79.3562 357° North  Level Estimated
03:37AM 7.0660 -79.3612 357° North  Level Estimated
03:38AM 7.1744 -79.3661 357° North  Level Estimated
03:39AM 7.2829 -79.3711 357° North  Level Estimated
03:40AM 7.3913 -79.3761 357° North  Level Estimated
03:41AM 7.4998 -79.3811 357° North  Level Estimated
03:42AM 7.6082 -79.3860 357° North  Level Estimated
03:43AM 7.7166 -79.3910 357° North  Level Estimated
03:44AM 7.8251 -79.3960 357° North  Level Estimated
03:45AM 7.9335 -79.4010 357° North  Level Estimated
03:46AM 8.0420 -79.4060 357° North  Level Estimated
03:47AM 8.1504 -79.4110 357° North  Level Estimated
03:48AM 8.2588 -79.4160 357° North  Level Estimated
03:49AM 8.3673 -79.4210 357° North  Level Estimated
03:50AM 8.4757 -79.4260 357° North  Level Estimated
03:50AM 9.1030 -79.7160 357° North 472 543 36,000  Level FlightAware
03:50AM 9.1820 -79.7270 352° North 473 544 36,000  Level FlightAware
03:52AM 9.3810 -79.7570 352° North 472 543 36,000  Level FlightAware
03:52AM 9.4680 -79.7700 352° North 471 542 36,000  Level FlightAware
03:53AM 9.5660 -79.7850 351° North 469 540 36,000  Level FlightAware
03:54AM 9.6540 -79.7980 352° North 469 540 36,000  Level FlightAware
03:54AM 9.7410 -79.8110 352° North 468 539 36,000  Level FlightAware
03:55AM 9.8380 -79.8260 351° North 458 527 36,000  Level FlightAware
03:56AM 9.9220 -79.8380 352° North 456 525 36,000  Level FlightAware
03:57AM 10.0190 -79.8530 351° North 458 527 36,000  Level FlightAware
03:57AM 10.1060 -79.8660 352° North 474 545 36,000  Level FlightAware
03:58AM 10.1940 -79.8790 352° North 471 542 36,000  Level FlightAware
03:59AM 10.2940 -79.8940 352° North 474 545 36,000  Level FlightAware
03:59AM 10.3810 -79.9070 352° North 475 547 36,000  Level FlightAware
04:00AM 10.4820 -79.9220 352° North 474 545 36,000  Level FlightAware
04:01AM 10.5680 -79.9350 352° North 459 528 36,000  Level FlightAware
04:02AM 10.6640 -79.9500 351° North 458 527 36,000  Level FlightAware
04:02AM 10.7520 -79.9630 352° North 459 528 36,000  Level FlightAware
04:03AM 10.8340 -79.9750 352° North 458 527 36,000  Level FlightAware
04:04AM 10.9330 -79.9900 352° North 459 528 36,000  Level FlightAware
04:04AM 10.9890 -79.9990 351° North 459 528 36,000  Level FlightAware
04:05AM 11.1000 -80.0150 352° North 459 528 36,000  Level FlightAware
04:06AM 11.1970 -80.0300 351° North 468 539 36,000  Level FlightAware
04:06AM 11.2890 -80.0440 352° North 468 539 36,000  Level FlightAware
04:07AM 11.3760 -80.0570 352° North 469 540 36,000  Level FlightAware
04:08AM 11.4520 -80.0690 351° North 469 540 36,000  Level FlightAware
04:08AM 11.5480 -80.0830 352° North 468 539 36,000  Level FlightAware
04:09AM 11.6680 -80.1020 351° North 459 528 36,000  Level FlightAware
04:10AM 11.7390 -80.1140 351° North 459 528 36,000  Level FlightAware
04:11AM 11.8790 -80.1340 352° North 459 528 36,000  Level FlightAware
04:12AM 11.9500 -80.1440 352° North 459 528 36,000  Level FlightAware
04:13AM 12.0760 -80.1640 351° North 459 528 36,000  Level FlightAware
04:14AM 12.2050 -80.1840 351° North 458 527 36,000  Level FlightAware
04:14AM 12.2760 -80.1950 351° North 458 527 36,000  Level FlightAware
04:15AM 12.3470 -80.2070 351° North 458 527 36,000  Level FlightAware
04:16AM 12.4180 -80.2180 351° North 458 527 36,000  Level FlightAware
04:16AM 12.4890 -80.2300 351° North 458 527 36,000  Level FlightAware
04:17AM 12.5780 -80.2440 351° North 458 527 36,000  Level FlightAware
04:18AM 12.6500 -80.2560 351° North 458 527 36,000  Level FlightAware
04:18AM 12.7210 -80.2670 351° North 458 527 36,000  Level FlightAware
04:19AM 12.7920 -80.2790 351° North 458 527 36,000  Level FlightAware
04:20AM 12.8810 -80.2930 351° North 458 527 36,000  Level FlightAware
04:21AM 12.9520 -80.3050 351° North 458 527 36,000  Level FlightAware
04:21AM 13.0230 -80.3170 351° North 458 527 36,000  Level FlightAware
04:22AM 13.0940 -80.3280 351° North 458 527 36,000  Level FlightAware
04:23AM 13.1650 -80.3400 351° North 458 527 36,000 -180 Level FlightAware
04:25AM 13.3694 -80.3392 North  Level Estimated
04:26AM 13.4780 -80.3389 North  Level Estimated
04:27AM 13.5865 -80.3384 North  Level Estimated
04:28AM 13.6951 -80.3381 North  Level Estimated
04:29AM 13.8036 -80.3376 North  Level Estimated
04:30AM 13.9122 -80.3372 North  Level Estimated
04:31AM 14.0207 -80.3369 North  Level Estimated
04:32AM 14.1293 -80.3364 North  Level Estimated
04:33AM 14.2378 -80.3361 North  Level Estimated
04:34AM 14.3464 -80.3356 North  Level Estimated
04:35AM 14.4549 -80.3353 North  Level Estimated
04:36AM 14.5635 -80.3348 North  Level Estimated
04:37AM 14.6720 -80.3344 North  Level Estimated
04:38AM 14.7806 -80.3340 North  Level Estimated
04:39AM 14.8891 -80.3336 North  Level Estimated
04:40AM 14.9977 -80.3332 North  Level Estimated
04:41AM 15.1062 -80.3328 North  Level Estimated
04:42AM 15.2148 -80.3324 North  Level Estimated
04:43AM 15.3233 -80.3320 North  Level Estimated
04:44AM 15.4319 -80.3316 North  Level Estimated
04:45AM 15.5404 -80.3312 North  Level Estimated
04:46AM 15.6490 -80.3307 North  Level Estimated
04:47AM 15.7575 -80.3303 North  Level Estimated
04:48AM 15.8661 -80.3299 North  Level Estimated
04:49AM 15.9746 -80.3295 North  Level Estimated
04:50AM 16.0832 -80.3291 North  Level Estimated
04:51AM 16.1917 -80.3287 North  Level Estimated
04:52AM 16.3003 -80.3283 North  Level Estimated
04:53AM 16.4088 -80.3279 North  Level Estimated
04:54AM 16.5174 -80.3275 North  Level Estimated
04:55AM 16.6259 -80.3271 North  Level Estimated
04:56AM 16.7345 -80.3267 North  Level Estimated
04:57AM 16.8430 -80.3262 North  Level Estimated
04:58AM 16.9516 -80.3258 North  Level Estimated
04:59AM 17.0601 -80.3254 North  Level Estimated
05:00AM 17.1687 -80.3250 North  Level Estimated
05:01AM 17.2772 -80.3246 North  Level Estimated
05:02AM 17.3858 -80.3242 North  Level Estimated
05:03AM 17.4943 -80.3237 North  Level Estimated
05:04AM 17.6029 -80.3233 North  Level Estimated
05:05AM 17.7114 -80.3229 North  Level Estimated
05:06AM 17.8200 -80.3225 North  Level Estimated
05:07AM 17.9285 -80.3221 North  Level Estimated
05:08AM 18.0371 -80.3216 North  Level Estimated
05:09AM 18.1456 -80.3212 North  Level Estimated
05:10AM 18.2542 -80.3208 North  Level Estimated
05:11AM 18.3627 -80.3204 North  Level Estimated
05:12AM 18.4713 -80.3200 North  Level Estimated
05:13AM 18.5798 -80.3195 North  Level Estimated
05:14AM 18.6884 -80.3191 North  Level Estimated
05:15AM 18.7969 -80.3187 North  Level Estimated
05:16AM 18.9055 -80.3183 North  Level Estimated
05:17AM 19.0140 -80.3179 North  Level Estimated
05:18AM 19.1226 -80.3174 North  Level Estimated
05:19AM 19.2311 -80.3170 North  Level Estimated
05:20AM 19.3397 -80.3166 North  Level Estimated
05:21AM 19.4482 -80.3162 North  Level Estimated
05:22AM 19.5568 -80.3157 North  Level Estimated
05:23AM 19.6653 -80.3153 North  Level Estimated
05:24AM 19.7739 -80.3149 North  Level Estimated
05:25AM 19.8824 -80.3144 North  Level Estimated
05:26AM 19.9910 -80.3140 North  Level Estimated
05:27AM 20.0995 -80.3136 North  Level Estimated
05:28AM 20.2081 -80.3131 North  Level Estimated
05:29AM 20.3166 -80.3127 North  Level Estimated
05:30AM 20.4252 -80.3123 North  Level Estimated
05:31AM 20.5337 -80.3119 North  Level Estimated
05:32AM 20.6423 -80.3114 North  Level Estimated
05:33AM 20.7508 -80.3110 North  Level Estimated
05:34AM 20.8594 -80.3106 North  Level Estimated
05:35AM 20.9679 -80.3101 North  Level Estimated
05:36AM 21.0765 -80.3097 North  Level Estimated
05:37AM 21.1850 -80.3093 North  Level Estimated
05:38AM 21.3051 -80.3088 North  Level Estimated
05:39AM 21.4252 -80.3083 North  Level Estimated
05:40AM 21.5452 -80.3078 North  Level Estimated
05:41AM 21.6653 -80.3073 North  Level Estimated
05:42AM 21.7853 -80.3068 North  Level Estimated
05:43AM 21.9054 -80.3064 North  Level Estimated
05:44AM 22.0255 -80.3059 North  Level Estimated
05:45AM 22.1455 -80.3054 North  Level Estimated
05:46AM 22.2656 -80.3049 North  Level Estimated
05:47AM 22.3856 -80.3044 North  Level Estimated
05:48AM 22.5057 -80.3039 North  Level Estimated
05:49AM 22.6258 -80.3034 North  Level Estimated
05:50AM 22.7458 -80.3029 North  Level Estimated
05:51AM 22.8659 -80.3024 North  Level Estimated
05:52AM 22.9871 -80.3019 North  Level Estimated
05:53AM 23.1083 -80.3014 North  Level Estimated
05:54AM 23.2295 -80.3009 North  Level Estimated
05:54AM 24.8886 -81.0436 North 415 478 23,500  Level Miami Center
05:55AM 23.3507 -80.3004 North  Level Estimated
05:56AM 23.4719 -80.2999 North  Level Estimated
05:57AM 23.5931 -80.2994 North  Level Estimated
05:58AM 23.7143 -80.2989 North  Level Estimated
05:59AM 23.8356 -80.2984 North  Level Estimated
06:00AM 25.5200 -80.9130 North 329 379 14,100  Level FlightAware
06:01AM 25.5930 -80.8190 49° Northeast 367 422 14,100 -360 Level FlightAware
06:02AM 25.6240 -80.6940 75° East 324 373 13,300 -900 Descending FlightAware
06:06AM 25.6790 -80.3910 79° East 263 303 10,100 -1,020 Descending FlightAware
06:06AM 25.6840 -80.3450 83° East 261 300 9,500 -1,140 Descending FlightAware
06:07AM 25.6870 -80.3140 84° East 258 297 9,100 -1,080 Descending FlightAware
06:07AM 25.6910 -80.2800 83° East 256 295 8,600 -1,380 Descending FlightAware
06:07AM 25.6930 -80.2560 85° East 250 288 8,100 -1,740 Descending FlightAware
06:08AM 25.6960 -80.2230 84° East 250 288 7,300 -1,680 Descending FlightAware
06:08AM 25.6980 -80.2050 83° East 249 287 7,000 -1,380 Descending FlightAware
06:08AM 25.7010 -80.1720 84° East 245 282 6,400 -1,560 Descending FlightAware
06:09AM 25.7060 -80.1350 81° East 242 278 5,600 -1,500 Descending FlightAware
06:09AM 25.7100 -80.1000 83° East 241 277 4,900 -1,380 Descending FlightAware
06:10AM 25.7120 -80.0800 84° East 239 275 4,600 -1,380 Descending FlightAware
06:10AM 25.7160 -80.0440 83° East 236 272 3,900 -1,320 Descending FlightAware
06:11AM 25.7190 -80.0150 83° East 235 270 3,400 -1,200 Descending FlightAware
06:11AM 25.7220 -79.9960 80° East 229 264 3,100 -600 Descending FlightAware
06:11AM 25.7280 -79.9790 69° East 234 269 3,100  Level FlightAware
06:11AM 25.7370 -79.9720 35° Northeast 236 272 3,100  Level FlightAware
06:11AM 25.7510 -79.9680 14° North 234 269 3,100  Level FlightAware
06:12AM 25.7840 -79.9700 357° North 218 251 3,100  Level FlightAware
06:12AM 25.7930 -79.9720 349° North 206 237 3,100  Level FlightAware
06:12AM 25.8030 -79.9820 318° Northwest 198 228 3,100  Level FlightAware
06:13AM 25.8090 -79.9960 295° West 195 224 3,100  Level FlightAware
06:13AM 25.8120 -80.0140 280° West 190 219 3,100  Level FlightAware
06:13AM 25.8110 -80.0410 268° West 191 220 3,100  Level FlightAware
06:14AM 25.8100 -80.0640 267° West 191 220 3,100  Level FlightAware
06:14AM 25.8090 -80.0920 268° West 170 196 3,100 -240 Level FlightAware
06:15AM 25.8080 -80.1120 267° West 170 196 2,900 -780 Descending FlightAware
06:15AM 25.8080 -80.1260 270° West 169 194 2,600 -960 Descending FlightAware
06:15AM 25.8070 -80.1520 268° West 167 192 2,200 -900 Descending FlightAware
06:16AM 25.8060 -80.1780 268° West 164 189 1,700 -900 Descending FlightAware
06:16AM 25.8050 -80.1980 267° West 156 180 1,400 -780 Descending FlightAware
06:17AM 25.8040 -80.2220 267° West 142 163 1,000 -780 Descending FlightAware
06:17AM 25.8030 -80.2390 266° West 143 165 700 -780 Descending FlightAware
06:18AM 25.8020 -80.2610 267° West 147 169 300 -840 Descending FlightAware